Time,TemperatureF,DewpointF,PressureIn,WindDirection,WindDirectionDegrees,WindSpeedMPH,WindSpeedGustMPH,Humidity,HourlyPrecipIn,Conditions,Clouds,dailyrainin,SoftwareType,DateUTC
2013-07-12 00:10:00,70.5,61.1,30.16,East,96,1.0,7.0,72,0.00,CLR,CLR,0.00,WeatherDisplay:10.37,2013-07-11 23:10:00,
2013-07-12 00:40:00,69.4,60.8,30.17,East,79,0.0,5.0,74,0.00,CLR,CLR,0.00,WeatherDisplay:10.37,2013-07-11 23:40:00,
2013-07-12 01:10:00,69.1,60.4,30.16,NE,46,3.0,6.0,74,0.00,CLR,CLR,0.00,WeatherDisplay:10.37,2013-07-12 00:10:00,
2013-07-12 01:20:00,69.0,60.4,30.16,ENE,61,3.0,6.0,74,0.00,CLR,CLR,0.00,WeatherDisplay:10.37,2013-07-12 00:20:00,
2013-07-12 01:30:00,68.6,60.4,30.16,NE,42,2.0,6.0,75,0.00,CLR,CLR,0.00,WeatherDisplay:10.37,2013-07-12 00:30:00,
2013-07-12 01:40:00,68.2,60.3,30.16,NE,54,5.0,6.0,76,0.00,CLR,CLR,0.00,WeatherDisplay:10.37,2013-07-12 00:40:00,
2013-07-12 01:50:00,68.4,60.1,30.16,NE,51,3.0,7.0,75,0.00,CLR,CLR,0.00,WeatherDisplay:10.37,2013-07-12 00:50:00,
2013-07-12 02:00:00,68.2,60.3,30.16,NE,50,3.0,6.0,76,0.00,CLR,CLR,0.00,WeatherDisplay:10.37,2013-07-12 01:00:00,
2013-07-12 02:30:00,67.6,60.2,30.16,NE,50,3.0,6.0,77,0.00,CLR,CLR,0.00,WeatherDisplay:10.37,2013-07-12 01:30:00,
2013-07-12 02:40:00,67.2,59.8,30.15,NE,46,2.0,6.0,77,0.00,CLR,CLR,0.00,WeatherDisplay:10.37,2013-07-12 01:40:00,
2013-07-12 02:50:00,66.9,59.5,30.16,ENE,73,2.0,6.0,77,0.00,CLR,CLR,0.00,WeatherDisplay:10.37,2013-07-12 01:50:00,
2013-07-12 03:10:00,66.6,59.5,30.15,East,86,6.0,8.0,78,0.00,CLR,CLR,0.00,WeatherDisplay:10.37,2013-07-12 02:10:00,
2013-07-12 03:20:00,66.3,59.6,30.15,East,90,6.0,8.0,79,0.00,CLR,CLR,0.00,WeatherDisplay:10.37,2013-07-12 02:20:00,
2013-07-12 03:30:00,65.8,59.8,30.15,East,98,6.0,8.0,81,0.00,CLR,CLR,0.00,WeatherDisplay:10.37,2013-07-12 02:30:00,
2013-07-12 03:40:00,65.1,60.5,30.15,ESE,107,3.0,8.0,85,0.00,CLR,CLR,0.00,WeatherDisplay:10.37,2013-07-12 02:40:00,
2013-07-12 03:50:00,64.6,60.6,30.15,SE,135,2.0,6.0,87,0.00,CLR,CLR,0.00,WeatherDisplay:10.37,2013-07-12 02:50:00,
2013-07-12 04:00:00,64.2,60.6,30.15,SE,135,1.0,5.0,88,0.00,CLR,CLR,0.00,WeatherDisplay:10.37,2013-07-12 03:00:00,
2013-07-12 04:10:00,63.9,60.9,30.15,SSE,163,2.0,4.0,90,0.00,CLR,CLR,0.00,WeatherDisplay:10.37,2013-07-12 03:10:00,
2013-07-12 04:20:00,63.7,61.0,30.16,SSE,147,1.0,5.0,91,0.00,CLR,CLR,0.00,WeatherDisplay:10.37,2013-07-12 03:20:00,
2013-07-12 04:30:00,63.3,61.0,30.15,ESE,105,1.0,3.0,92,0.00,CLR,CLR,0.00,WeatherDisplay:10.37,2013-07-12 03:30:00,
2013-07-12 04:40:00,63.1,60.8,30.15,East,82,0.0,2.0,92,0.00,CLR,CLR,0.00,WeatherDisplay:10.37,2013-07-12 03:40:00,
2013-07-12 04:50:00,63.0,60.9,30.15,ESE,102,3.0,6.0,93,0.00,CLR,CLR,0.00,WeatherDisplay:10.37,2013-07-12 03:50:00,
2013-07-12 05:00:00,62.6,60.8,30.15,ESE,108,2.0,5.0,94,0.00,CLR,CLR,0.00,WeatherDisplay:10.37,2013-07-12 04:00:00,
2013-07-12 05:10:00,62.6,61.1,30.16,SE,129,2.0,4.0,95,0.00,CLR,CLR,0.00,WeatherDisplay:10.37,2013-07-12 04:10:00,
2013-07-12 05:20:00,62.8,61.6,30.15,SE,132,2.0,6.0,96,0.00,CLR,CLR,0.00,WeatherDisplay:10.37,2013-07-12 04:20:00,
2013-07-12 05:30:00,62.8,61.6,30.16,SE,135,3.0,6.0,96,0.00,CLR,CLR,0.00,WeatherDisplay:10.37,2013-07-12 04:30:00,
2013-07-12 05:40:00,62.4,61.8,30.15,SE,132,3.0,6.0,98,0.00,CLR,CLR,0.00,WeatherDisplay:10.37,2013-07-12 04:40:00,
2013-07-12 05:50:00,62.3,61.7,30.15,SE,139,3.0,6.0,98,0.00,CLR,CLR,0.00,WeatherDisplay:10.37,2013-07-12 04:50:00,
2013-07-12 06:00:00,62.2,61.7,30.16,SE,135,3.0,6.0,98,0.00,CLR,CLR,0.00,WeatherDisplay:10.37,2013-07-12 05:00:00,
2013-07-12 06:10:00,62.2,61.7,30.16,SE,139,5.0,7.0,98,0.00,CLR,CLR,0.00,WeatherDisplay:10.37,2013-07-12 05:10:00,
2013-07-12 06:20:00,62.1,61.5,30.15,SE,135,3.0,7.0,98,0.00,CLR,CLR,0.00,WeatherDisplay:10.37,2013-07-12 05:20:00,
2013-07-12 06:30:00,62.2,61.7,30.16,SE,131,3.0,6.0,98,0.00,CLR,CLR,0.00,WeatherDisplay:10.37,2013-07-12 05:30:00,
2013-07-12 06:40:00,62.4,61.8,30.16,SE,135,2.0,6.0,98,0.00,CLR,CLR,0.00,WeatherDisplay:10.37,2013-07-12 05:40:00,
2013-07-12 06:50:00,62.6,61.7,30.16,SE,127,5.0,7.0,97,0.00,CLR,CLR,0.00,WeatherDisplay:10.37,2013-07-12 05:50:00,
2013-07-12 07:00:00,62.6,61.7,30.16,SE,132,3.0,7.0,97,0.00,CLR,CLR,0.00,WeatherDisplay:10.37,2013-07-12 06:00:00,
2013-07-12 07:10:00,62.8,61.9,30.16,SE,139,3.0,6.0,97,0.00,CLR,CLR,0.00,WeatherDisplay:10.37,2013-07-12 06:10:00,
2013-07-12 07:20:00,63.0,62.1,30.17,SSE,151,3.0,6.0,97,0.00,CLR,CLR,0.00,WeatherDisplay:10.37,2013-07-12 06:20:00,
2013-07-12 07:30:00,63.1,62.3,30.17,SSE,151,5.0,6.0,97,0.00,CLR,CLR,0.00,WeatherDisplay:10.37,2013-07-12 06:30:00,
2013-07-12 07:40:00,63.3,62.5,30.17,SSE,157,3.0,7.0,97,0.00,CLR,CLR,0.00,WeatherDisplay:10.37,2013-07-12 06:40:00,
2013-07-12 07:50:00,63.5,62.6,30.17,SSE,166,3.0,6.0,97,0.00,CLR,CLR,0.00,WeatherDisplay:10.37,2013-07-12 06:50:00,
2013-07-12 08:00:00,63.9,63.0,30.17,SSE,158,5.0,6.0,97,0.00,CLR,CLR,0.00,WeatherDisplay:10.37,2013-07-12 07:00:00,
2013-07-12 08:10:00,63.9,63.0,30.17,South,179,5.0,7.0,97,0.00,CLR,CLR,0.00,WeatherDisplay:10.37,2013-07-12 07:10:00,
2013-07-12 08:20:00,64.1,63.2,30.17,South,189,5.0,8.0,97,0.00,CLR,CLR,0.00,WeatherDisplay:10.37,2013-07-12 07:20:00,
2013-07-12 08:30:00,64.0,63.2,30.18,SSW,204,6.0,8.0,97,0.00,CLR,CLR,0.00,WeatherDisplay:10.37,2013-07-12 07:30:00,
2013-07-12 08:40:00,64.0,63.2,30.17,SSW,206,5.0,8.0,97,0.00,CLR,CLR,0.00,WeatherDisplay:10.37,2013-07-12 07:40:00,
2013-07-12 08:50:00,64.2,63.4,30.18,South,190,3.0,8.0,97,0.00,CLR,CLR,0.00,WeatherDisplay:10.37,2013-07-12 07:50:00,
2013-07-12 09:00:00,64.8,64.2,30.18,South,184,5.0,8.0,98,0.00,CLR,CLR,0.00,WeatherDisplay:10.37,2013-07-12 08:00:00,
2013-07-12 09:10:00,64.9,64.3,30.19,SW,217,3.0,6.0,98,0.00,CLR,CLR,0.00,WeatherDisplay:10.37,2013-07-12 08:10:00,
2013-07-12 09:20:00,65.5,64.6,30.19,SW,221,3.0,6.0,97,0.00,CLR,CLR,0.00,WeatherDisplay:10.37,2013-07-12 08:20:00,
2013-07-12 09:30:00,65.8,65.0,30.19,SSW,207,3.0,7.0,97,0.00,CLR,CLR,0.00,WeatherDisplay:10.37,2013-07-12 08:30:00,
2013-07-12 09:40:00,67.3,65.8,30.19,SSW,209,3.0,6.0,95,0.00,CLR,CLR,0.00,WeatherDisplay:10.37,2013-07-12 08:40:00,
2013-07-12 09:50:00,69.0,66.9,30.18,SW,217,3.0,5.0,93,0.00,CLR,CLR,0.00,WeatherDisplay:10.37,2013-07-12 08:50:00,
2013-07-12 10:00:00,69.3,65.9,30.18,SW,221,3.0,6.0,89,0.00,CLR,CLR,0.00,WeatherDisplay:10.37,2013-07-12 09:00:00,
2013-07-12 10:10:00,69.6,65.2,30.19,SW,217,3.0,6.0,86,0.00,CLR,CLR,0.00,WeatherDisplay:10.37,2013-07-12 09:10:00,
2013-07-12 10:20:00,70.3,65.3,30.19,SSW,213,3.0,6.0,84,0.00,CLR,CLR,0.00,WeatherDisplay:10.37,2013-07-12 09:20:00,
2013-07-12 10:30:00,70.5,65.4,30.19,SSW,202,3.0,6.0,84,0.00,CLR,CLR,0.00,WeatherDisplay:10.37,2013-07-12 09:30:00,
2013-07-12 10:40:00,71.9,66.1,30.19,SW,223,2.0,6.0,82,0.00,CLR,CLR,0.00,WeatherDisplay:10.37,2013-07-12 09:40:00,
2013-07-12 10:50:00,70.5,64.8,30.19,WSW,237,6.0,8.0,82,0.00,CLR,CLR,0.00,WeatherDisplay:10.37,2013-07-12 09:50:00,
2013-07-12 11:00:00,72.0,65.1,30.19,WSW,250,7.0,11.0,79,0.00,CLR,CLR,0.00,WeatherDisplay:10.37,2013-07-12 10:00:00,
2013-07-12 11:10:00,73.0,65.0,30.19,WNW,290,9.0,13.0,76,0.00,CLR,CLR,0.00,WeatherDisplay:10.37,2013-07-12 10:10:00,
2013-07-12 11:20:00,73.6,65.2,30.19,WNW,286,9.0,17.0,75,0.00,CLR,CLR,0.00,WeatherDisplay:10.37,2013-07-12 10:20:00,
2013-07-12 11:30:00,73.6,64.8,30.19,WNW,302,10.0,15.0,74,0.00,CLR,CLR,0.00,WeatherDisplay:10.37,2013-07-12 10:30:00,
2013-07-12 11:40:00,73.7,64.9,30.19,WNW,282,12.0,17.0,74,0.00,CLR,CLR,0.00,WeatherDisplay:10.37,2013-07-12 10:40:00,
2013-07-12 11:50:00,73.0,63.9,30.19,West,265,6.0,17.0,73,0.00,CLR,CLR,0.00,WeatherDisplay:10.37,2013-07-12 10:50:00,
2013-07-12 12:00:00,73.2,64.4,30.19,West,274,10.0,17.0,74,0.00,CLR,CLR,0.00,WeatherDisplay:10.37,2013-07-12 11:00:00,
2013-07-12 12:10:00,72.4,63.3,30.19,WNW,291,9.0,17.0,73,0.00,CLR,CLR,0.00,WeatherDisplay:10.37,2013-07-12 11:10:00,
2013-07-12 12:20:00,73.2,64.0,30.19,West,270,8.0,17.0,73,0.00,CLR,CLR,0.00,WeatherDisplay:10.37,2013-07-12 11:20:00,
2013-07-12 12:30:00,72.7,63.5,30.19,WNW,293,10.0,17.0,73,0.00,CLR,CLR,0.00,WeatherDisplay:10.37,2013-07-12 11:30:00,
2013-07-12 12:40:00,72.5,63.4,30.19,West,259,8.0,17.0,73,0.00,CLR,CLR,0.00,WeatherDisplay:10.37,2013-07-12 11:40:00,
2013-07-12 12:50:00,72.5,63.0,30.19,WNW,290,10.0,20.0,72,0.00,CLR,CLR,0.00,WeatherDisplay:10.37,2013-07-12 11:50:00,
2013-07-12 13:00:00,72.1,63.0,30.19,WNW,294,10.0,17.0,73,0.00,CLR,CLR,0.00,WeatherDisplay:10.37,2013-07-12 12:00:00,
2013-07-12 13:10:00,72.3,63.2,30.18,WNW,295,12.0,18.0,73,0.00,CLR,CLR,0.00,WeatherDisplay:10.37,2013-07-12 12:10:00,
2013-07-12 13:20:00,73.8,64.2,30.18,West,262,12.0,17.0,72,0.00,CLR,CLR,0.00,WeatherDisplay:10.37,2013-07-12 12:20:00,
2013-07-12 13:30:00,73.2,63.6,30.18,West,277,10.0,17.0,72,0.00,CLR,CLR,0.00,WeatherDisplay:10.37,2013-07-12 12:30:00,
2013-07-12 13:40:00,72.1,62.6,30.18,WNW,288,8.0,17.0,72,0.00,CLR,CLR,0.00,WeatherDisplay:10.37,2013-07-12 12:40:00,
2013-07-12 13:50:00,72.5,63.3,30.18,WSW,243,10.0,17.0,73,0.00,CLR,CLR,0.00,WeatherDisplay:10.37,2013-07-12 12:50:00,
2013-07-12 14:00:00,71.3,62.6,30.18,West,276,12.0,17.0,74,0.00,CLR,CLR,0.00,WeatherDisplay:10.37,2013-07-12 13:00:00,
2013-07-12 14:10:00,72.4,63.2,30.18,WNW,284,10.0,17.0,73,0.00,CLR,CLR,0.00,WeatherDisplay:10.37,2013-07-12 13:10:00,
2013-07-12 14:20:00,72.2,62.7,30.18,WNW,282,12.0,20.0,72,0.00,CLR,CLR,0.00,WeatherDisplay:10.37,2013-07-12 13:20:00,
2013-07-12 14:30:00,72.5,63.0,30.18,West,273,12.0,21.0,72,0.00,CLR,CLR,0.00,WeatherDisplay:10.37,2013-07-12 13:30:00,
2013-07-12 14:40:00,71.2,62.5,30.18,WNW,285,13.0,21.0,74,0.00,CLR,CLR,0.00,WeatherDisplay:10.37,2013-07-12 13:40:00,
2013-07-12 14:50:00,72.0,62.8,30.18,West,281,12.0,20.0,73,0.00,CLR,CLR,0.00,WeatherDisplay:10.37,2013-07-12 13:50:00,
2013-07-12 15:00:00,72.6,63.1,30.18,WNW,284,9.0,20.0,72,0.00,CLR,CLR,0.00,WeatherDisplay:10.37,2013-07-12 14:00:00,
2013-07-12 15:10:00,72.7,62.7,30.17,WNW,292,14.0,21.0,71,0.00,CLR,CLR,0.00,WeatherDisplay:10.37,2013-07-12 14:10:00,
2013-07-12 15:20:00,72.5,63.0,30.18,WNW,284,10.0,21.0,72,0.00,CLR,CLR,0.00,WeatherDisplay:10.37,2013-07-12 14:20:00,
2013-07-12 15:30:00,72.3,62.4,30.18,WNW,286,13.0,20.0,71,0.00,CLR,CLR,0.00,WeatherDisplay:10.37,2013-07-12 14:30:00,
2013-07-12 15:40:00,72.1,62.2,30.18,WNW,298,12.0,21.0,71,0.00,CLR,CLR,0.00,WeatherDisplay:10.37,2013-07-12 14:40:00,
2013-07-12 15:50:00,72.3,62.4,30.18,West,276,7.0,21.0,71,0.00,CLR,CLR,0.00,WeatherDisplay:10.37,2013-07-12 14:50:00,
2013-07-12 16:00:00,72.4,62.9,30.18,WNW,284,9.0,20.0,72,0.00,CLR,CLR,0.00,WeatherDisplay:10.37,2013-07-12 15:00:00,
2013-07-12 16:10:00,72.8,62.4,30.18,WNW,284,14.0,23.0,70,0.00,CLR,CLR,0.00,WeatherDisplay:10.37,2013-07-12 15:10:00,
2013-07-12 16:20:00,72.6,62.2,30.18,WNW,302,14.0,23.0,70,0.00,CLR,CLR,0.00,WeatherDisplay:10.37,2013-07-12 15:20:00,
2013-07-12 16:30:00,73.0,62.7,30.18,WNW,284,10.0,21.0,70,0.00,CLR,CLR,0.00,WeatherDisplay:10.37,2013-07-12 15:30:00,
2013-07-12 16:40:00,72.0,62.0,30.17,NW,306,13.0,21.0,71,0.00,CLR,CLR,0.00,WeatherDisplay:10.37,2013-07-12 15:40:00,
2013-07-12 16:50:00,72.1,62.2,30.17,WNW,299,9.0,21.0,71,0.00,CLR,CLR,0.00,WeatherDisplay:10.37,2013-07-12 15:50:00,
2013-07-12 17:00:00,72.0,62.0,30.17,WNW,295,16.0,20.0,71,0.00,CLR,CLR,0.00,WeatherDisplay:10.37,2013-07-12 16:00:00,
2013-07-12 17:10:00,70.9,61.8,30.17,West,279,15.0,23.0,73,0.00,CLR,CLR,0.00,WeatherDisplay:10.37,2013-07-12 16:10:00,
2013-07-12 17:20:00,71.6,62.1,30.17,West,275,15.0,20.0,72,0.00,CLR,CLR,0.00,WeatherDisplay:10.37,2013-07-12 16:20:00,
2013-07-12 17:30:00,71.0,61.5,30.17,NW,315,15.0,23.0,72,0.00,CLR,CLR,0.00,WeatherDisplay:10.37,2013-07-12 16:30:00,
2013-07-12 17:40:00,71.8,62.3,30.17,WNW,295,9.0,21.0,72,0.00,CLR,CLR,0.00,WeatherDisplay:10.37,2013-07-12 16:40:00,
2013-07-12 17:50:00,72.1,62.2,30.17,WNW,294,13.0,21.0,71,0.00,CLR,CLR,0.00,WeatherDisplay:10.37,2013-07-12 16:50:00,
2013-07-12 18:10:00,69.7,61.0,30.17,West,281,14.0,21.0,74,0.00,CLR,CLR,0.00,WeatherDisplay:10.37,2013-07-12 17:10:00,
2013-07-12 18:20:00,68.9,61.8,30.17,West,272,13.0,20.0,78,0.00,CLR,CLR,0.00,WeatherDisplay:10.37,2013-07-12 17:20:00,
2013-07-12 18:30:00,68.4,61.9,30.17,West,276,12.0,20.0,80,0.00,CLR,CLR,0.00,WeatherDisplay:10.37,2013-07-12 17:30:00,
2013-07-12 18:40:00,68.5,61.4,30.17,West,274,14.0,20.0,78,0.00,CLR,CLR,0.00,WeatherDisplay:10.37,2013-07-12 17:40:00,
2013-07-12 18:50:00,67.5,61.8,30.17,West,281,10.0,20.0,82,0.00,CLR,CLR,0.00,WeatherDisplay:10.37,2013-07-12 17:50:00,
2013-07-12 19:00:00,68.2,62.1,30.17,West,271,13.0,20.0,81,0.00,CLR,CLR,0.00,WeatherDisplay:10.37,2013-07-12 18:00:00,
2013-07-12 19:20:00,68.0,61.9,30.17,West,270,10.0,18.0,81,0.00,CLR,CLR,0.00,WeatherDisplay:10.37,2013-07-12 18:20:00,
2013-07-12 19:30:00,67.9,62.5,30.17,WNW,290,9.0,18.0,83,0.00,CLR,CLR,0.00,WeatherDisplay:10.37,2013-07-12 18:30:00,
2013-07-12 19:40:00,67.4,62.4,30.17,West,276,12.0,18.0,84,0.00,CLR,CLR,0.00,WeatherDisplay:10.37,2013-07-12 18:40:00,
2013-07-12 20:00:00,67.1,62.1,30.17,West,267,10.0,20.0,84,0.00,CLR,CLR,0.00,WeatherDisplay:10.37,2013-07-12 19:00:00,
2013-07-12 20:10:00,67.2,62.2,30.18,West,262,12.0,18.0,84,0.00,CLR,CLR,0.00,WeatherDisplay:10.37,2013-07-12 19:10:00,
2013-07-12 20:40:00,66.7,62.1,30.18,West,275,10.0,16.0,85,0.00,CLR,CLR,0.00,WeatherDisplay:10.37,2013-07-12 19:40:00,
2013-07-12 20:50:00,66.4,61.7,30.18,West,275,8.0,14.0,85,0.00,CLR,CLR,0.00,WeatherDisplay:10.37,2013-07-12 19:50:00,
2013-07-12 21:00:00,65.6,62.0,30.18,West,273,9.0,15.0,88,0.00,CLR,CLR,0.00,WeatherDisplay:10.37,2013-07-12 20:00:00,
2013-07-12 21:10:00,65.3,61.7,30.19,WSW,257,7.0,13.0,88,0.00,CLR,CLR,0.00,WeatherDisplay:10.37,2013-07-12 20:10:00,
2013-07-12 21:20:00,65.1,61.8,30.18,West,262,9.0,13.0,89,0.00,CLR,CLR,0.00,WeatherDisplay:10.37,2013-07-12 20:20:00,
2013-07-12 21:30:00,64.9,61.6,30.18,West,271,12.0,15.0,89,0.00,CLR,CLR,0.00,WeatherDisplay:10.37,2013-07-12 20:30:00,
2013-07-12 21:40:00,64.8,61.8,30.19,West,281,10.0,16.0,90,0.00,CLR,CLR,0.00,WeatherDisplay:10.37,2013-07-12 20:40:00,
2013-07-12 21:50:00,64.8,62.1,30.19,West,264,9.0,17.0,91,0.00,CLR,CLR,0.00,WeatherDisplay:10.37,2013-07-12 20:50:00,
2013-07-12 22:00:00,64.6,61.9,30.19,WNW,286,10.0,17.0,91,0.00,CLR,CLR,0.00,WeatherDisplay:10.37,2013-07-12 21:00:00,
2013-07-12 22:10:00,64.6,62.2,30.19,WNW,292,8.0,14.0,92,0.00,CLR,CLR,0.00,WeatherDisplay:10.37,2013-07-12 21:10:00,
2013-07-12 22:20:00,64.6,62.2,30.20,WNW,303,8.0,13.0,92,0.00,CLR,CLR,0.00,WeatherDisplay:10.37,2013-07-12 21:20:00,
2013-07-12 22:30:00,64.4,62.0,30.20,WNW,288,9.0,13.0,92,0.00,CLR,CLR,0.00,WeatherDisplay:10.37,2013-07-12 21:30:00,
2013-07-12 22:40:00,64.2,61.5,30.20,West,275,9.0,14.0,91,0.00,CLR,CLR,0.00,WeatherDisplay:10.37,2013-07-12 21:40:00,
2013-07-12 22:50:00,64.2,61.5,30.20,WNW,291,7.0,14.0,91,0.00,CLR,CLR,0.00,WeatherDisplay:10.37,2013-07-12 21:50:00,
2013-07-12 23:00:00,64.4,61.7,30.20,WNW,290,6.0,13.0,91,0.00,CLR,CLR,0.00,WeatherDisplay:10.37,2013-07-12 22:00:00,
2013-07-12 23:10:00,64.8,62.1,30.21,West,275,7.0,10.0,91,0.00,CLR,CLR,0.00,WeatherDisplay:10.37,2013-07-12 22:10:00,
2013-07-12 23:20:00,65.3,60.0,30.21,North,9,2.0,10.0,83,0.00,CLR,CLR,0.00,WeatherDisplay:10.37,2013-07-12 22:20:00,
2013-07-12 23:30:00,64.9,56.8,30.20,NNE,19,5.0,8.0,75,0.00,CLR,CLR,0.00,WeatherDisplay:10.37,2013-07-12 22:30:00,
2013-07-12 23:40:00,65.0,55.8,30.20,NNE,24,3.0,8.0,72,0.00,CLR,CLR,0.00,WeatherDisplay:10.37,2013-07-12 22:40:00,